createdAt,value
2023-12-01T00:00:26.192Z,100289.31
2023-12-01T00:02:52.768Z,100282.53
2023-12-01T00:05:19.294Z,100291.41
2023-12-01T00:07:45.808Z,100272.63
2023-12-01T00:10:13.231Z,100286.63
2023-12-01T00:12:39.885Z,100288.31
2023-12-01T00:15:07.050Z,100289.72
2023-12-01T00:17:33.994Z,100286.56
2023-12-01T00:20:00.875Z,100296.28
2023-12-01T00:22:27.440Z,100289.25
2023-12-01T00:24:54.011Z,100298.56
2023-12-01T00:27:20.588Z,100288.84
2023-12-01T00:29:47.055Z,100297.84
2023-12-01T00:32:13.639Z,100298.81
2023-12-01T00:34:40.139Z,100295.09
2023-12-01T00:37:06.759Z,100285.56
2023-12-01T00:39:33.291Z,100307.41
2023-12-01T00:41:59.828Z,100295.75
2023-12-01T00:44:26.498Z,100302.13
2023-12-01T00:46:52.999Z,100299.06
2023-12-01T00:49:19.599Z,100297.88
2023-12-01T00:51:47.041Z,100298.41
2023-12-01T00:54:13.640Z,100305.50
2023-12-01T00:56:40.166Z,100297.28
2023-12-01T00:59:06.711Z,100303.72
2023-12-01T01:01:34.612Z,100302.59
2023-12-01T01:04:01.194Z,100307.34
2023-12-01T01:06:27.806Z,100308.56
2023-12-01T01:08:54.273Z,100319.28
2023-12-01T01:11:23.282Z,100320.44
2023-12-01T01:13:50.116Z,100324.13
2023-12-01T01:16:16.818Z,100319.16
2023-12-01T01:18:43.441Z,100326.06
2023-12-01T01:21:09.941Z,100324.78
2023-12-01T01:23:36.481Z,100333.06
2023-12-01T01:26:04.072Z,100327.84
2023-12-01T01:28:30.561Z,100328.34
2023-12-01T01:30:58.848Z,100326.94
2023-12-01T01:33:25.474Z,100331.94
2023-12-01T01:35:51.970Z,100325.72
2023-12-01T01:38:18.446Z,100331.66
2023-12-01T01:40:44.961Z,100335.69
2023-12-01T01:43:20.807Z,100342.84
2023-12-01T01:45:47.415Z,100344.59
2023-12-01T01:48:14.002Z,100334.31
2023-12-01T01:50:40.545Z,100335.59
2023-12-01T01:53:07.094Z,100335.34
2023-12-01T01:55:33.652Z,100337.84
2023-12-01T01:58:00.204Z,100334.25
2023-12-01T02:00:26.788Z,100337.59
2023-12-01T02:02:53.357Z,100339.88
2023-12-01T02:05:19.875Z,100346.34
2023-12-01T02:07:46.534Z,100344.31
2023-12-01T02:10:16.980Z,100345.56
2023-12-01T02:12:46.022Z,100352.22
2023-12-01T02:15:13.068Z,100354.34
2023-12-01T02:17:39.947Z,100358.91
2023-12-01T02:20:07.780Z,100359.47
2023-12-01T02:22:34.924Z,100362.25
2023-12-01T02:25:01.511Z,100364.41
2023-12-01T02:27:28.135Z,100376.41
2023-12-01T02:29:54.659Z,100372.09
2023-12-01T02:32:21.189Z,100373.78
2023-12-01T02:34:47.709Z,100365.31
2023-12-01T02:37:14.466Z,100358.59
2023-12-01T02:39:40.980Z,100358.72
2023-12-01T02:42:07.526Z,100355.44
2023-12-01T02:44:33.978Z,100359.81
2023-12-01T02:47:00.483Z,100355.69
2023-12-01T02:49:27.067Z,100347.00
2023-12-01T02:51:53.574Z,100348.25
2023-12-01T02:54:20.054Z,100348.25
2023-12-01T02:56:46.539Z,100343.38
2023-12-01T02:59:13.021Z,100342.66
2023-12-01T03:01:39.633Z,100356.97
2023-12-01T03:04:06.310Z,100352.06
2023-12-01T03:06:32.832Z,100352.63
2023-12-01T03:08:59.308Z,100356.88
2023-12-01T03:11:25.814Z,100362.47
2023-12-01T03:13:52.314Z,100357.00
2023-12-01T03:16:18.879Z,100358.81
2023-12-01T03:18:45.555Z,100351.88
2023-12-01T03:21:14.450Z,100348.25
2023-12-01T03:23:42.207Z,100337.41
2023-12-01T03:26:11.356Z,100345.16
2023-12-01T03:28:37.859Z,100340.78
2023-12-01T03:31:04.857Z,100355.03
2023-12-01T03:33:32.093Z,100354.84
2023-12-01T03:35:58.758Z,100363.66
2023-12-01T03:38:25.223Z,100359.13
2023-12-01T03:40:51.721Z,100354.38
2023-12-01T03:43:18.308Z,100355.06
2023-12-01T03:45:44.915Z,100346.41
2023-12-01T03:48:11.499Z,100353.53
2023-12-01T03:50:38.104Z,100354.41
2023-12-01T03:53:04.619Z,100357.94
2023-12-01T03:55:31.194Z,100363.72
2023-12-01T03:57:57.801Z,100348.88
2023-12-01T04:00:24.348Z,100345.59
2023-12-01T04:02:51.691Z,100346.44
2023-12-01T04:05:21.927Z,100353.56
2023-12-01T04:07:56.031Z,100352.59
2023-12-01T04:10:28.861Z,100345.84
2023-12-01T04:12:56.422Z,100358.56
2023-12-01T04:15:26.658Z,100351.78
2023-12-01T04:17:53.912Z,100355.09
2023-12-01T04:20:26.507Z,100348.28
2023-12-01T04:22:58.642Z,100349.97
2023-12-01T04:25:25.746Z,100351.44
2023-12-01T04:27:53.475Z,100335.56
2023-12-01T04:30:21.925Z,100336.75
2023-12-01T04:32:54.972Z,100357.56
2023-12-01T04:35:23.510Z,100353.56
2023-12-01T04:37:50.482Z,100350.25
2023-12-01T04:40:17.337Z,100341.13
2023-12-01T04:42:45.500Z,100341.78
2023-12-01T04:45:13.822Z,100352.03
2023-12-01T04:47:44.283Z,100349.03
2023-12-01T04:50:15.416Z,100351.50
2023-12-01T04:52:47.091Z,100342.88
2023-12-01T04:55:16.371Z,100358.34
2023-12-01T04:57:44.210Z,100349.28
2023-12-01T05:00:22.141Z,100346.91
2023-12-01T05:02:59.866Z,100351.91
2023-12-01T05:05:31.297Z,100350.91
2023-12-01T05:08:01.031Z,100347.63
2023-12-01T05:10:29.662Z,100358.28
2023-12-01T05:12:58.637Z,100364.16
2023-12-01T05:15:27.155Z,100365.41
2023-12-01T05:17:56.080Z,100364.59
2023-12-01T05:20:25.201Z,100376.00
2023-12-01T05:22:53.600Z,100368.59
2023-12-01T05:25:21.740Z,100368.97
2023-12-01T05:27:56.158Z,100370.00
2023-12-01T05:30:25.348Z,100364.41
2023-12-01T05:32:53.367Z,100365.53
2023-12-01T05:35:21.150Z,100373.94
2023-12-01T05:37:50.128Z,100371.63
2023-12-01T05:40:22.697Z,100370.25
2023-12-01T05:42:51.033Z,100374.50
2023-12-01T05:45:18.105Z,100392.59
2023-12-01T05:47:46.319Z,100385.78
2023-12-01T05:50:14.604Z,100390.00
2023-12-01T05:52:42.586Z,100379.63
2023-12-01T05:55:19.099Z,100390.72
2023-12-01T05:57:52.012Z,100381.69
2023-12-01T06:00:30.867Z,100381.38
2023-12-01T06:03:02.807Z,100389.88
2023-12-01T06:05:29.921Z,100384.81
2023-12-01T06:07:59.333Z,100398.88
2023-12-01T06:10:27.974Z,100392.53
2023-12-01T06:12:55.256Z,100399.53
2023-12-01T06:15:22.720Z,100393.75
2023-12-01T06:17:53.390Z,100397.25
2023-12-01T06:20:23.761Z,100399.44
2023-12-01T06:22:51.170Z,100397.75
2023-12-01T06:25:19.962Z,100394.16
2023-12-01T06:27:47.893Z,100410.69
2023-12-01T06:30:16.370Z,100402.03
2023-12-01T06:32:47.341Z,100407.41
2023-12-01T06:35:18.801Z,100405.47
2023-12-01T06:37:48.632Z,100400.13
2023-12-01T06:40:18.047Z,100403.75
2023-12-01T06:42:44.528Z,100416.69
2023-12-01T06:45:12.109Z,100416.50
2023-12-01T06:47:42.057Z,100421.34
2023-12-01T06:50:12.991Z,100427.97
2023-12-01T06:52:39.909Z,100431.47
2023-12-01T06:55:08.451Z,100437.56
2023-12-01T06:57:42.252Z,100441.38
2023-12-01T07:00:31.517Z,100442.38
2023-12-01T07:03:06.948Z,100446.50
2023-12-01T07:05:34.566Z,100440.22
2023-12-01T07:08:02.205Z,100452.28
2023-12-01T07:10:29.582Z,100456.25
2023-12-01T07:12:56.871Z,100446.19
2023-12-01T07:15:25.835Z,100464.72
2023-12-01T07:17:54.276Z,100462.53
2023-12-01T07:20:21.568Z,100466.34
2023-12-01T07:22:49.449Z,100470.97
2023-12-01T07:25:23.562Z,100471.47
2023-12-01T07:27:53.131Z,100480.06
2023-12-01T07:30:19.693Z,100482.38
2023-12-01T07:32:47.336Z,100479.25
2023-12-01T07:35:14.814Z,100479.09
2023-12-01T07:37:43.679Z,100481.91
2023-12-01T07:40:14.586Z,100486.03
2023-12-01T07:42:41.386Z,100486.84
2023-12-01T07:45:10.302Z,100484.22
2023-12-01T07:47:38.040Z,100492.94
2023-12-01T07:50:05.753Z,100488.09
2023-12-01T07:52:33.317Z,100499.53
2023-12-01T07:55:00.799Z,100498.34
2023-12-01T07:57:27.443Z,100496.28
2023-12-01T07:59:53.907Z,100500.06
2023-12-01T08:02:20.613Z,100502.72
2023-12-01T08:04:47.281Z,100497.63
2023-12-01T08:07:15.470Z,100508.47
2023-12-01T08:09:43.724Z,100502.41
2023-12-01T08:12:10.368Z,100520.72
2023-12-01T08:14:36.868Z,100512.84
2023-12-01T08:17:03.643Z,100520.03
2023-12-01T08:19:30.602Z,100514.03
2023-12-01T08:21:57.176Z,100521.00
2023-12-01T08:24:32.129Z,100514.16
2023-12-01T08:27:01.250Z,100514.50
2023-12-01T08:29:28.492Z,100518.13
2023-12-01T08:31:55.773Z,100518.69
2023-12-01T08:34:23.734Z,100532.03
2023-12-01T08:36:50.747Z,100528.63
2023-12-01T08:39:17.318Z,100530.59
2023-12-01T08:41:43.777Z,100535.06
2023-12-01T08:44:10.265Z,100530.84
2023-12-01T08:46:37.014Z,100535.47
2023-12-01T08:49:03.555Z,100529.91
2023-12-01T08:51:30.100Z,100536.56
2023-12-01T08:53:56.660Z,100540.22
2023-12-01T08:56:23.183Z,100540.50
2023-12-01T08:58:50.192Z,100534.53
2023-12-01T09:01:17.623Z,100534.91
2023-12-01T09:03:44.676Z,100541.19
2023-12-01T09:06:11.574Z,100534.66
2023-12-01T09:08:38.230Z,100547.50
2023-12-01T09:11:04.929Z,100535.75
2023-12-01T09:13:33.590Z,100555.47
2023-12-01T09:16:01.158Z,100550.72
2023-12-01T09:18:29.040Z,100546.16
2023-12-01T09:20:55.893Z,100545.94
2023-12-01T09:23:22.695Z,100548.59
2023-12-01T09:25:49.642Z,100541.94
2023-12-01T09:28:16.218Z,100546.13
2023-12-01T09:30:42.721Z,100542.66
2023-12-01T09:33:09.431Z,100545.00
2023-12-01T09:35:54.991Z,100548.75
2023-12-01T09:38:22.579Z,100542.16
2023-12-01T09:40:49.080Z,100549.59
2023-12-01T09:43:19.740Z,100557.72
2023-12-01T09:45:46.551Z,100553.56
2023-12-01T09:48:15.382Z,100563.50
2023-12-01T09:50:42.119Z,100556.47
2023-12-01T09:53:08.692Z,100565.84
2023-12-01T09:55:36.288Z,100570.69
2023-12-01T09:58:03.286Z,100562.22
2023-12-01T10:00:30.105Z,100571.22
2023-12-01T10:02:57.101Z,100563.09
2023-12-01T10:05:23.927Z,100565.75
2023-12-01T10:07:51.813Z,100562.16
2023-12-01T10:10:21.436Z,100572.03
2023-12-01T10:12:55.236Z,100572.03
2023-12-01T10:15:22.248Z,100565.56
2023-12-01T10:17:48.836Z,100566.19
2023-12-01T10:20:19.290Z,100571.94
2023-12-01T10:22:48.596Z,100560.34
2023-12-01T10:25:15.232Z,100551.09
2023-12-01T10:27:41.736Z,100554.91
2023-12-01T10:30:15.904Z,100561.97
2023-12-01T10:32:43.370Z,100556.09
2023-12-01T10:35:09.933Z,100561.09
2023-12-01T10:37:38.273Z,100551.47
2023-12-01T10:40:09.464Z,100552.59
2023-12-01T10:42:36.927Z,100557.41
2023-12-01T10:45:04.736Z,100542.84
2023-12-01T10:47:32.148Z,100543.47
2023-12-01T10:49:59.339Z,100546.09
2023-12-01T10:52:26.575Z,100542.00
2023-12-01T10:54:53.634Z,100534.06
2023-12-01T10:57:39.362Z,100550.84
2023-12-01T11:00:26.485Z,100538.63
2023-12-01T11:02:53.721Z,100538.22
2023-12-01T11:05:20.826Z,100540.00
2023-12-01T11:08:09.610Z,100538.63
2023-12-01T11:10:50.170Z,100537.66
2023-12-01T11:13:59.148Z,100532.78
2023-12-01T11:16:28.273Z,100531.16
2023-12-01T11:18:57.897Z,100528.09
2023-12-01T11:21:24.577Z,100537.31
2023-12-01T11:23:51.856Z,100538.47
2023-12-01T11:26:18.492Z,100534.63
2023-12-01T11:28:48.059Z,100538.19
2023-12-01T11:31:21.784Z,100538.97
2023-12-01T11:33:53.760Z,100534.28
2023-12-01T11:36:23.706Z,100539.28
2023-12-01T11:39:14.473Z,100534.44
2023-12-01T11:41:45.349Z,100527.91
2023-12-01T11:44:36.482Z,100531.09
2023-12-01T11:47:07.929Z,100519.34
2023-12-01T11:49:35.585Z,100520.44
2023-12-01T11:52:04.266Z,100527.53
2023-12-01T11:54:37.926Z,100516.31
2023-12-01T11:57:12.126Z,100526.50
2023-12-01T11:59:38.703Z,100519.34
2023-12-01T12:02:06.220Z,100522.34
2023-12-01T12:04:38.937Z,100525.78
2023-12-01T12:07:06.388Z,100529.34
2023-12-01T12:09:34.044Z,100537.09
2023-12-01T12:12:02.313Z,100524.16
2023-12-01T12:14:30.656Z,100523.38
2023-12-01T12:16:58.890Z,100524.69
2023-12-01T12:19:27.152Z,100529.69
2023-12-01T12:21:54.868Z,100525.69
2023-12-01T12:24:22.299Z,100522.81
2023-12-01T12:26:57.750Z,100527.81
2023-12-01T12:29:25.775Z,100525.53
2023-12-01T12:31:53.103Z,100519.75
2023-12-01T12:34:21.810Z,100531.41
2023-12-01T12:36:51.821Z,100525.28
2023-12-01T12:39:18.953Z,100541.13
2023-12-01T12:42:00.509Z,100530.66
2023-12-01T12:44:32.694Z,100531.00
2023-12-01T12:47:06.769Z,100539.25
2023-12-01T12:49:34.664Z,100531.47
2023-12-01T12:52:02.608Z,100524.53
2023-12-01T12:54:29.533Z,100526.41
2023-12-01T12:56:56.202Z,100526.56
2023-12-01T12:59:24.166Z,100529.00
2023-12-01T13:01:51.635Z,100529.41
2023-12-01T13:04:18.259Z,100535.50
2023-12-01T13:06:49.136Z,100528.19
2023-12-01T13:09:17.931Z,100533.69
2023-12-01T13:11:45.433Z,100533.53
2023-12-01T13:14:14.306Z,100524.97
2023-12-01T13:16:51.909Z,100537.56
2023-12-01T13:19:23.106Z,100533.19
2023-12-01T13:21:53.132Z,100541.22
2023-12-01T13:24:22.517Z,100526.00
2023-12-01T13:26:49.442Z,100518.44
2023-12-01T13:29:16.069Z,100534.00
2023-12-01T13:31:42.827Z,100549.22
2023-12-01T13:34:09.617Z,100540.06
2023-12-01T13:36:36.340Z,100549.41
2023-12-01T13:39:04.202Z,100552.06
2023-12-01T13:41:31.765Z,100537.00
2023-12-01T13:43:58.319Z,100546.22
2023-12-01T13:46:24.945Z,100541.84
2023-12-01T13:48:51.681Z,100535.63
2023-12-01T13:51:18.404Z,100551.25
2023-12-01T13:53:45.080Z,100542.09
2023-12-01T13:56:12.703Z,100535.63
2023-12-01T13:58:44.830Z,100551.66
2023-12-01T14:01:14.305Z,100548.00
2023-12-01T14:03:40.988Z,100545.78
2023-12-01T14:06:07.953Z,100550.34
2023-12-01T14:08:34.878Z,100550.44
2023-12-01T14:11:01.985Z,100552.19
2023-12-01T14:13:28.468Z,100553.28
2023-12-01T14:15:55.153Z,100546.38
2023-12-01T14:18:22.791Z,100547.19
2023-12-01T14:20:49.821Z,100554.19
2023-12-01T14:23:16.462Z,100550.44
2023-12-01T14:25:43.023Z,100550.44
2023-12-01T14:28:09.512Z,100556.97
2023-12-01T14:30:36.019Z,100561.53
2023-12-01T14:33:02.665Z,100552.00
2023-12-01T14:35:29.412Z,100557.66
2023-12-01T14:37:55.963Z,100546.44
2023-12-01T14:40:22.748Z,100555.19
2023-12-01T14:42:49.234Z,100564.63
2023-12-01T14:45:15.757Z,100557.19
2023-12-01T14:47:42.472Z,100556.34
2023-12-01T14:50:09.286Z,100556.56
2023-12-01T14:52:35.881Z,100559.59
2023-12-01T14:55:02.445Z,100556.25
2023-12-01T14:57:29.035Z,100555.34
2023-12-01T14:59:55.667Z,100553.72
2023-12-01T15:02:23.126Z,100562.66
2023-12-01T15:04:49.815Z,100566.59
2023-12-01T15:07:16.349Z,100562.88
2023-12-01T15:09:42.793Z,100561.44
2023-12-01T15:12:09.373Z,100558.84
2023-12-01T15:14:35.878Z,100556.31
2023-12-01T15:17:02.386Z,100553.22
2023-12-01T15:19:33.200Z,100545.84
2023-12-01T15:22:01.084Z,100551.66
2023-12-01T15:24:27.721Z,100549.31
2023-12-01T15:26:57.481Z,100550.09
2023-12-01T15:29:24.744Z,100545.50
2023-12-01T15:31:51.413Z,100553.56
2023-12-01T15:34:18.011Z,100558.47
2023-12-01T15:36:44.512Z,100546.59
2023-12-01T15:39:12.400Z,100559.50
2023-12-01T15:41:39.796Z,100555.19
2023-12-01T15:44:06.400Z,100556.72
2023-12-01T15:46:33.306Z,100553.56
2023-12-01T15:48:59.956Z,100566.13
2023-12-01T15:51:26.649Z,100554.28
2023-12-01T15:53:53.257Z,100556.97
2023-12-01T15:56:19.872Z,100549.34
2023-12-01T15:58:46.404Z,100556.09
2023-12-01T16:01:13.061Z,100555.69
2023-12-01T16:03:39.949Z,100552.84
2023-12-01T16:06:07.040Z,100559.25
2023-12-01T16:08:33.572Z,100564.88
2023-12-01T16:11:00.064Z,100553.06
2023-12-01T16:13:26.564Z,100564.34
2023-12-01T16:15:53.105Z,100567.81
2023-12-01T16:18:21.506Z,100563.03
2023-12-01T16:20:48.295Z,100567.81
2023-12-01T16:23:14.911Z,100570.13
2023-12-01T16:25:41.414Z,100571.25
2023-12-01T16:28:09.334Z,100571.25
2023-12-01T16:30:37.034Z,100579.19
2023-12-01T16:33:04.041Z,100580.72
2023-12-01T16:35:30.790Z,100575.56
2023-12-01T16:37:57.777Z,100572.09
2023-12-01T16:40:24.432Z,100576.28
2023-12-01T16:42:51.079Z,100576.09
2023-12-01T16:45:17.926Z,100571.81
2023-12-01T16:47:45.337Z,100575.53
2023-12-01T16:50:12.376Z,100575.72
2023-12-01T16:52:38.887Z,100574.06
2023-12-01T16:55:10.582Z,100575.00
2023-12-01T16:57:37.606Z,100575.03
2023-12-01T17:00:05.030Z,100579.66
2023-12-01T17:02:31.593Z,100577.94
2023-12-01T17:04:58.244Z,100583.22
2023-12-01T17:07:24.744Z,100587.97
2023-12-01T17:09:51.253Z,100586.78
2023-12-01T17:12:17.785Z,100579.66
2023-12-01T17:14:45.016Z,100588.47
2023-12-01T17:17:12.678Z,100595.13
2023-12-01T17:19:39.255Z,100601.16
2023-12-01T17:22:05.740Z,100595.25
2023-12-01T17:24:32.261Z,100606.88
2023-12-01T17:26:58.780Z,100596.75
2023-12-01T17:29:25.534Z,100610.81
2023-12-01T17:31:52.204Z,100612.94
2023-12-01T17:34:20.430Z,100604.78
2023-12-01T17:36:46.913Z,100608.59
2023-12-01T17:39:13.424Z,100612.91
2023-12-01T17:41:39.930Z,100608.03
2023-12-01T17:44:06.443Z,100609.69
2023-12-01T17:46:33.016Z,100604.09
2023-12-01T17:48:59.640Z,100609.28
2023-12-01T17:51:26.198Z,100606.44
2023-12-01T17:53:52.911Z,100609.31
2023-12-01T17:56:21.666Z,100606.88
2023-12-01T17:58:49.051Z,100602.63
2023-12-01T18:01:15.533Z,100607.03
2023-12-01T18:03:42.146Z,100608.47
2023-12-01T18:06:14.245Z,100614.47
2023-12-01T18:08:41.067Z,100622.91
2023-12-01T18:11:08.031Z,100622.31
2023-12-01T18:13:35.385Z,100617.75
2023-12-01T18:16:02.167Z,100622.25
2023-12-01T18:18:32.104Z,100617.47
2023-12-01T18:21:01.388Z,100615.78
2023-12-01T18:23:28.165Z,100617.38
2023-12-01T18:25:54.657Z,100618.75
2023-12-01T18:28:21.192Z,100634.81
2023-12-01T18:30:47.921Z,100632.41
2023-12-01T18:33:14.536Z,100634.06
2023-12-01T18:35:41.275Z,100635.72
2023-12-01T18:38:07.780Z,100641.66
2023-12-01T18:40:34.239Z,100635.03
2023-12-01T18:43:00.751Z,100638.13
2023-12-01T18:45:27.402Z,100641.88
2023-12-01T18:47:54.053Z,100641.50
2023-12-01T18:50:20.577Z,100635.50
2023-12-01T18:52:47.091Z,100639.34
2023-12-01T18:55:14.445Z,100629.41
2023-12-01T18:57:41.067Z,100638.53
2023-12-01T19:00:09.324Z,100633.44
2023-12-01T19:02:36.389Z,100630.75
2023-12-01T19:05:03.640Z,100631.91
2023-12-01T19:07:31.612Z,100639.41
2023-12-01T19:09:58.102Z,100636.91
2023-12-01T19:12:24.739Z,100637.50
2023-12-01T19:14:52.293Z,100636.13
2023-12-01T19:17:19.216Z,100631.38
2023-12-01T19:19:46.345Z,100637.50
2023-12-01T19:22:13.886Z,100635.69
2023-12-01T19:24:40.398Z,100627.69
2023-12-01T19:27:06.964Z,100629.09
2023-12-01T19:29:35.530Z,100629.53
2023-12-01T19:32:04.007Z,100614.97
2023-12-01T19:34:30.740Z,100624.22
2023-12-01T19:36:59.262Z,100632.44
2023-12-01T19:39:27.389Z,100622.38
2023-12-01T19:41:53.972Z,100625.44
2023-12-01T19:44:20.588Z,100628.34
2023-12-01T19:46:47.093Z,100619.69
2023-12-01T19:49:13.742Z,100616.72
2023-12-01T19:51:40.293Z,100622.50
2023-12-01T19:54:06.805Z,100625.84
2023-12-01T19:56:33.320Z,100622.56
2023-12-01T19:58:59.814Z,100621.31
2023-12-01T20:01:26.326Z,100625.22
2023-12-01T20:03:52.816Z,100623.41
2023-12-01T20:06:19.349Z,100623.78
2023-12-01T20:08:45.921Z,100616.19
2023-12-01T20:11:12.604Z,100617.00
2023-12-01T20:13:39.094Z,100625.06
2023-12-01T20:16:06.021Z,100617.22
2023-12-01T20:18:32.614Z,100625.25
2023-12-01T20:20:59.471Z,100618.84
2023-12-01T20:23:25.962Z,100631.66
2023-12-01T20:25:52.437Z,100621.13
2023-12-01T20:28:18.952Z,100624.19
2023-12-01T20:30:45.544Z,100618.47
2023-12-01T20:33:12.128Z,100622.16
2023-12-01T20:35:38.649Z,100627.94
2023-12-01T20:38:05.375Z,100621.72
2023-12-01T20:40:31.898Z,100625.44
2023-12-01T20:42:58.364Z,100621.53
2023-12-01T20:45:24.934Z,100615.56
2023-12-01T20:47:51.554Z,100622.34
2023-12-01T20:50:18.132Z,100619.88
2023-12-01T20:52:47.121Z,100602.53
2023-12-01T20:55:16.736Z,100604.06
2023-12-01T20:57:43.325Z,100616.13
2023-12-01T21:00:10.621Z,100598.63
2023-12-01T21:02:37.162Z,100608.50
2023-12-01T21:05:04.435Z,100606.00
2023-12-01T21:07:30.991Z,100606.81
2023-12-01T21:09:57.568Z,100607.66
2023-12-01T21:12:24.087Z,100612.00
2023-12-01T21:14:53.141Z,100610.59
2023-12-01T21:17:22.105Z,100608.31
2023-12-01T21:19:48.632Z,100611.81
2023-12-01T21:22:15.111Z,100605.50
2023-12-01T21:24:41.627Z,100603.00
2023-12-01T21:27:08.132Z,100621.69
2023-12-01T21:29:34.608Z,100614.75
2023-12-01T21:32:01.081Z,100620.47
2023-12-01T21:34:27.659Z,100627.09
2023-12-01T21:36:54.178Z,100617.78
2023-12-01T21:39:20.746Z,100629.88
2023-12-01T21:41:49.250Z,100634.69
2023-12-01T21:44:15.720Z,100626.88
2023-12-01T21:46:42.199Z,100637.41
2023-12-01T21:49:09.266Z,100637.00
2023-12-01T21:51:35.908Z,100633.91
2023-12-01T21:54:02.603Z,100633.47
2023-12-01T21:56:29.092Z,100637.81
2023-12-01T21:58:55.566Z,100638.00
2023-12-01T22:01:22.145Z,100639.88
2023-12-01T22:03:48.645Z,100636.56
2023-12-01T22:06:15.135Z,100635.75
2023-12-01T22:08:42.130Z,100635.34
2023-12-01T22:11:08.778Z,100640.28
2023-12-01T22:13:35.272Z,100637.63
2023-12-01T22:16:02.307Z,100634.91
2023-12-01T22:18:28.975Z,100632.03
2023-12-01T22:20:55.635Z,100639.44
2023-12-01T22:23:22.183Z,100641.31
2023-12-01T22:25:48.671Z,100646.88
2023-12-01T22:28:15.601Z,100651.81
2023-12-01T22:30:42.121Z,100649.13
2023-12-01T22:33:08.668Z,100655.09
2023-12-01T22:35:35.163Z,100653.88
2023-12-01T22:38:01.618Z,100657.78
2023-12-01T22:40:28.190Z,100656.97
2023-12-01T22:42:54.646Z,100649.31
2023-12-01T22:45:21.176Z,100657.56
2023-12-01T22:47:47.746Z,100664.34
2023-12-01T22:50:14.288Z,100660.03
2023-12-01T22:52:40.758Z,100661.25
2023-12-01T22:55:07.617Z,100667.03
2023-12-01T22:57:34.198Z,100659.97
2023-12-01T23:00:00.828Z,100662.47
2023-12-01T23:02:27.461Z,100659.59
2023-12-01T23:04:54.193Z,100659.78
2023-12-01T23:07:20.788Z,100672.56
2023-12-01T23:09:47.375Z,100666.56
2023-12-01T23:12:13.897Z,100671.56
2023-12-01T23:14:40.430Z,100665.19
2023-12-01T23:17:06.905Z,100668.66
2023-12-01T23:19:33.593Z,100667.69
2023-12-01T23:22:00.252Z,100677.53
2023-12-01T23:24:26.786Z,100679.19
2023-12-01T23:26:53.309Z,100675.09
2023-12-01T23:29:19.858Z,100675.69
2023-12-01T23:31:46.457Z,100673.22
2023-12-01T23:34:13.043Z,100670.34
2023-12-01T23:36:39.572Z,100680.63
2023-12-01T23:39:06.498Z,100676.94
2023-12-01T23:41:32.962Z,100674.44
2023-12-01T23:43:59.498Z,100679.19
2023-12-01T23:46:26.017Z,100674.25
2023-12-01T23:48:52.706Z,100672.81
2023-12-01T23:51:19.439Z,100663.97
2023-12-01T23:53:45.944Z,100666.84
2023-12-01T23:56:12.787Z,100672.00
2023-12-01T23:58:39.305Z,100662.50
